sensor_id;sensor_type;location;lat;lon;timestamp;P1;durP1;ratioP1;P2;durP2;ratioP2
34924;SDS011;21130;51.728;8.748;2023-03-19T00:00:03;17.42;;;14.98;;
34924;SDS011;21130;51.728;8.748;2023-03-19T00:02:33;17.85;;;14.60;;
34924;SDS011;21130;51.728;8.748;2023-03-19T00:05:02;17.05;;;14.15;;
34924;SDS011;21130;51.728;8.748;2023-03-19T00:07:29;15.38;;;13.77;;
34924;SDS011;21130;51.728;8.748;2023-03-19T00:09:56;15.70;;;13.98;;
34924;SDS011;21130;51.728;8.748;2023-03-19T00:12:23;16.67;;;14.98;;
34924;SDS011;21130;51.728;8.748;2023-03-19T00:14:49;16.35;;;14.55;;
34924;SDS011;21130;51.728;8.748;2023-03-19T00:17:16;15.52;;;13.68;;
34924;SDS011;21130;51.728;8.748;2023-03-19T00:19:42;20.10;;;15.32;;
34924;SDS011;21130;51.728;8.748;2023-03-19T00:22:10;17.30;;;15.50;;
34924;SDS011;21130;51.728;8.748;2023-03-19T00:24:36;15.93;;;14.00;;
34924;SDS011;21130;51.728;8.748;2023-03-19T00:27:03;15.52;;;13.90;;
34924;SDS011;21130;51.728;8.748;2023-03-19T00:29:29;16.98;;;15.18;;
34924;SDS011;21130;51.728;8.748;2023-03-19T00:31:56;15.93;;;14.00;;
34924;SDS011;21130;51.728;8.748;2023-03-19T00:34:22;15.60;;;14.00;;
34924;SDS011;21130;51.728;8.748;2023-03-19T00:36:49;15.18;;;13.60;;
34924;SDS011;21130;51.728;8.748;2023-03-19T00:39:17;15.48;;;13.32;;
34924;SDS011;21130;51.728;8.748;2023-03-19T00:41:45;14.82;;;13.30;;
34924;SDS011;21130;51.728;8.748;2023-03-19T00:44:14;17.08;;;14.18;;
34924;SDS011;21130;51.728;8.748;2023-03-19T00:46:41;15.10;;;12.82;;
34924;SDS011;21130;51.728;8.748;2023-03-19T00:49:07;16.10;;;14.38;;
34924;SDS011;21130;51.728;8.748;2023-03-19T00:51:33;17.25;;;14.32;;
34924;SDS011;21130;51.728;8.748;2023-03-19T00:54:00;16.60;;;14.88;;
34924;SDS011;21130;51.728;8.748;2023-03-19T00:56:28;16.95;;;13.90;;
34924;SDS011;21130;51.728;8.748;2023-03-19T00:58:55;14.23;;;12.73;;
34924;SDS011;21130;51.728;8.748;2023-03-19T01:01:21;13.57;;;12.27;;
34924;SDS011;21130;51.728;8.748;2023-03-19T01:03:49;14.85;;;11.93;;
34924;SDS011;21130;51.728;8.748;2023-03-19T01:06:15;14.13;;;12.02;;
34924;SDS011;21130;51.728;8.748;2023-03-19T01:08:42;14.45;;;11.82;;
34924;SDS011;21130;51.728;8.748;2023-03-19T01:11:09;12.57;;;10.80;;
34924;SDS011;21130;51.728;8.748;2023-03-19T01:13:40;14.27;;;10.32;;
34924;SDS011;21130;51.728;8.748;2023-03-19T01:16:06;13.23;;;10.23;;
34924;SDS011;21130;51.728;8.748;2023-03-19T01:18:33;14.63;;;11.18;;
34924;SDS011;21130;51.728;8.748;2023-03-19T01:21:00;11.88;;;10.45;;
34924;SDS011;21130;51.728;8.748;2023-03-19T01:23:27;11.82;;;9.93;;
34924;SDS011;21130;51.728;8.748;2023-03-19T01:25:54;13.07;;;10.15;;
34924;SDS011;21130;51.728;8.748;2023-03-19T01:28:22;12.60;;;10.30;;
34924;SDS011;21130;51.728;8.748;2023-03-19T01:30:50;14.10;;;10.50;;
34924;SDS011;21130;51.728;8.748;2023-03-19T01:33:16;14.13;;;10.30;;
34924;SDS011;21130;51.728;8.748;2023-03-19T01:35:44;14.15;;;10.70;;
34924;SDS011;21130;51.728;8.748;2023-03-19T01:38:13;11.23;;;9.85;;
34924;SDS011;21130;51.728;8.748;2023-03-19T01:40:42;10.63;;;9.23;;
34924;SDS011;21130;51.728;8.748;2023-03-19T01:43:12;15.40;;;10.50;;
34924;SDS011;21130;51.728;8.748;2023-03-19T01:45:41;13.50;;;10.77;;
34924;SDS011;21130;51.728;8.748;2023-03-19T01:48:14;14.07;;;10.88;;
34924;SDS011;21130;51.728;8.748;2023-03-19T01:50:45;12.10;;;9.88;;
34924;SDS011;21130;51.728;8.748;2023-03-19T01:53:14;12.05;;;10.38;;
34924;SDS011;21130;51.728;8.748;2023-03-19T01:55:43;12.38;;;10.60;;
34924;SDS011;21130;51.728;8.748;2023-03-19T01:58:11;11.68;;;10.10;;
34924;SDS011;21130;51.728;8.748;2023-03-19T02:00:37;13.18;;;10.65;;
34924;SDS011;21130;51.728;8.748;2023-03-19T02:03:04;15.30;;;11.35;;
34924;SDS011;21130;51.728;8.748;2023-03-19T02:05:32;12.43;;;9.40;;
34924;SDS011;21130;51.728;8.748;2023-03-19T02:08:02;11.35;;;10.25;;
34924;SDS011;21130;51.728;8.748;2023-03-19T02:10:31;12.57;;;9.95;;
34924;SDS011;21130;51.728;8.748;2023-03-19T02:12:59;10.18;;;9.00;;
34924;SDS011;21130;51.728;8.748;2023-03-19T02:15:26;10.45;;;9.23;;
34924;SDS011;21130;51.728;8.748;2023-03-19T02:17:52;12.80;;;9.55;;
34924;SDS011;21130;51.728;8.748;2023-03-19T02:20:21;13.02;;;9.68;;
34924;SDS011;21130;51.728;8.748;2023-03-19T02:22:56;12.20;;;9.50;;
34924;SDS011;21130;51.728;8.748;2023-03-19T02:25:32;12.45;;;9.43;;
34924;SDS011;21130;51.728;8.748;2023-03-19T02:28:06;9.73;;;8.75;;
34924;SDS011;21130;51.728;8.748;2023-03-19T02:30:34;13.20;;;9.23;;
34924;SDS011;21130;51.728;8.748;2023-03-19T02:33:21;13.65;;;9.98;;
34924;SDS011;21130;51.728;8.748;2023-03-19T02:36:08;13.20;;;10.00;;
34924;SDS011;21130;51.728;8.748;2023-03-19T02:38:38;14.30;;;9.45;;
34924;SDS011;21130;51.728;8.748;2023-03-19T02:41:08;10.95;;;8.85;;
34924;SDS011;21130;51.728;8.748;2023-03-19T02:43:37;11.48;;;9.63;;
34924;SDS011;21130;51.728;8.748;2023-03-19T02:46:05;12.07;;;10.07;;
34924;SDS011;21130;51.728;8.748;2023-03-19T02:48:34;11.48;;;9.70;;
34924;SDS011;21130;51.728;8.748;2023-03-19T02:51:01;10.50;;;8.85;;
34924;SDS011;21130;51.728;8.748;2023-03-19T02:53:28;11.48;;;9.20;;
34924;SDS011;21130;51.728;8.748;2023-03-19T02:55:54;10.80;;;9.65;;
34924;SDS011;21130;51.728;8.748;2023-03-19T02:58:20;13.43;;;9.90;;
34924;SDS011;21130;51.728;8.748;2023-03-19T03:00:48;11.32;;;9.52;;
34924;SDS011;21130;51.728;8.748;2023-03-19T03:03:16;11.25;;;9.10;;
34924;SDS011;21130;51.728;8.748;2023-03-19T03:05:42;9.40;;;8.50;;
34924;SDS011;21130;51.728;8.748;2023-03-19T03:08:08;12.77;;;9.90;;
34924;SDS011;21130;51.728;8.748;2023-03-19T03:10:35;15.30;;;10.52;;
34924;SDS011;21130;51.728;8.748;2023-03-19T03:13:01;11.73;;;9.65;;
34924;SDS011;21130;51.728;8.748;2023-03-19T03:15:30;10.57;;;9.50;;
34924;SDS011;21130;51.728;8.748;2023-03-19T03:17:58;13.38;;;9.20;;
34924;SDS011;21130;51.728;8.748;2023-03-19T03:20:24;11.70;;;8.98;;
34924;SDS011;21130;51.728;8.748;2023-03-19T03:22:51;9.77;;;8.77;;
34924;SDS011;21130;51.728;8.748;2023-03-19T03:25:17;13.95;;;8.82;;
34924;SDS011;21130;51.728;8.748;2023-03-19T03:27:45;11.82;;;9.38;;
34924;SDS011;21130;51.728;8.748;2023-03-19T03:30:11;16.80;;;9.30;;
34924;SDS011;21130;51.728;8.748;2023-03-19T03:32:40;10.48;;;8.88;;
34924;SDS011;21130;51.728;8.748;2023-03-19T03:35:08;10.07;;;9.07;;
34924;SDS011;21130;51.728;8.748;2023-03-19T03:37:34;10.00;;;9.02;;
34924;SDS011;21130;51.728;8.748;2023-03-19T03:40:02;10.30;;;9.20;;
34924;SDS011;21130;51.728;8.748;2023-03-19T03:42:32;9.85;;;8.82;;
34924;SDS011;21130;51.728;8.748;2023-03-19T03:44:58;11.30;;;8.98;;
34924;SDS011;21130;51.728;8.748;2023-03-19T03:47:25;10.70;;;9.57;;
34924;SDS011;21130;51.728;8.748;2023-03-19T03:49:51;10.27;;;8.70;;
34924;SDS011;21130;51.728;8.748;2023-03-19T03:52:19;9.65;;;8.05;;
34924;SDS011;21130;51.728;8.748;2023-03-19T03:54:46;8.90;;;8.07;;
34924;SDS011;21130;51.728;8.748;2023-03-19T03:57:13;9.20;;;7.93;;
34924;SDS011;21130;51.728;8.748;2023-03-19T03:59:39;9.90;;;8.77;;
34924;SDS011;21130;51.728;8.748;2023-03-19T04:02:06;11.38;;;8.73;;
34924;SDS011;21130;51.728;8.748;2023-03-19T04:04:33;9.95;;;8.68;;
34924;SDS011;21130;51.728;8.748;2023-03-19T04:06:59;12.07;;;8.57;;
34924;SDS011;21130;51.728;8.748;2023-03-19T04:09:27;10.55;;;8.65;;
34924;SDS011;21130;51.728;8.748;2023-03-19T04:11:53;11.48;;;9.27;;
34924;SDS011;21130;51.728;8.748;2023-03-19T04:14:22;10.50;;;8.57;;
34924;SDS011;21130;51.728;8.748;2023-03-19T04:16:48;9.57;;;8.57;;
34924;SDS011;21130;51.728;8.748;2023-03-19T04:19:15;9.43;;;8.15;;
34924;SDS011;21130;51.728;8.748;2023-03-19T04:21:41;13.43;;;8.75;;
34924;SDS011;21130;51.728;8.748;2023-03-19T04:24:08;11.82;;;8.30;;
34924;SDS011;21130;51.728;8.748;2023-03-19T04:26:36;10.63;;;9.50;;
34924;SDS011;21130;51.728;8.748;2023-03-19T04:29:03;11.45;;;9.25;;
34924;SDS011;21130;51.728;8.748;2023-03-19T04:31:30;9.15;;;8.18;;
34924;SDS011;21130;51.728;8.748;2023-03-19T04:33:56;9.75;;;8.50;;
34924;SDS011;21130;51.728;8.748;2023-03-19T04:36:22;9.10;;;8.15;;
34924;SDS011;21130;51.728;8.748;2023-03-19T04:38:49;11.50;;;8.90;;
34924;SDS011;21130;51.728;8.748;2023-03-19T04:41:16;11.57;;;8.98;;
34924;SDS011;21130;51.728;8.748;2023-03-19T04:43:44;12.32;;;8.90;;
34924;SDS011;21130;51.728;8.748;2023-03-19T04:46:10;12.00;;;8.73;;
34924;SDS011;21130;51.728;8.748;2023-03-19T04:48:37;8.80;;;7.93;;
34924;SDS011;21130;51.728;8.748;2023-03-19T04:51:04;9.02;;;8.13;;
34924;SDS011;21130;51.728;8.748;2023-03-19T04:53:33;8.80;;;7.72;;
34924;SDS011;21130;51.728;8.748;2023-03-19T04:56:00;9.13;;;7.68;;
34924;SDS011;21130;51.728;8.748;2023-03-19T04:58:26;9.93;;;7.60;;
34924;SDS011;21130;51.728;8.748;2023-03-19T05:00:54;8.93;;;7.70;;
34924;SDS011;21130;51.728;8.748;2023-03-19T05:03:21;10.55;;;8.02;;
34924;SDS011;21130;51.728;8.748;2023-03-19T05:05:47;10.57;;;8.45;;
34924;SDS011;21130;51.728;8.748;2023-03-19T05:08:14;10.45;;;9.15;;
34924;SDS011;21130;51.728;8.748;2023-03-19T05:10:40;10.50;;;8.00;;
34924;SDS011;21130;51.728;8.748;2023-03-19T05:13:07;9.32;;;8.18;;
34924;SDS011;21130;51.728;8.748;2023-03-19T05:15:33;10.93;;;8.23;;
34924;SDS011;21130;51.728;8.748;2023-03-19T05:18:01;9.57;;;8.05;;
34924;SDS011;21130;51.728;8.748;2023-03-19T05:20:28;11.05;;;8.00;;
34924;SDS011;21130;51.728;8.748;2023-03-19T05:22:54;9.32;;;7.57;;
34924;SDS011;21130;51.728;8.748;2023-03-19T05:25:23;7.63;;;6.93;;
34924;SDS011;21130;51.728;8.748;2023-03-19T05:27:49;10.20;;;7.78;;
34924;SDS011;21130;51.728;8.748;2023-03-19T05:30:16;12.10;;;7.60;;
34924;SDS011;21130;51.728;8.748;2023-03-19T05:32:43;12.95;;;7.43;;
34924;SDS011;21130;51.728;8.748;2023-03-19T05:35:12;10.07;;;7.60;;
34924;SDS011;21130;51.728;8.748;2023-03-19T05:37:39;8.63;;;7.13;;
34924;SDS011;21130;51.728;8.748;2023-03-19T05:40:06;8.07;;;7.28;;
34924;SDS011;21130;51.728;8.748;2023-03-19T05:42:33;9.85;;;7.00;;
34924;SDS011;21130;51.728;8.748;2023-03-19T05:45:00;8.77;;;7.32;;
34924;SDS011;21130;51.728;8.748;2023-03-19T05:47:28;8.65;;;6.85;;
34924;SDS011;21130;51.728;8.748;2023-03-19T05:49:54;9.27;;;7.03;;
34924;SDS011;21130;51.728;8.748;2023-03-19T05:52:22;7.97;;;6.47;;
34924;SDS011;21130;51.728;8.748;2023-03-19T05:54:49;9.95;;;6.82;;
34924;SDS011;21130;51.728;8.748;2023-03-19T05:57:15;7.75;;;6.80;;
34924;SDS011;21130;51.728;8.748;2023-03-19T05:59:42;11.73;;;7.28;;
34924;SDS011;21130;51.728;8.748;2023-03-19T06:02:08;8.48;;;7.63;;
34924;SDS011;21130;51.728;8.748;2023-03-19T06:04:35;9.88;;;7.63;;
34924;SDS011;21130;51.728;8.748;2023-03-19T06:07:01;8.40;;;7.60;;
34924;SDS011;21130;51.728;8.748;2023-03-19T06:09:30;12.38;;;7.95;;
34924;SDS011;21130;51.728;8.748;2023-03-19T06:11:56;9.00;;;7.53;;
34924;SDS011;21130;51.728;8.748;2023-03-19T06:14:23;8.95;;;7.97;;
34924;SDS011;21130;51.728;8.748;2023-03-19T06:16:49;10.02;;;8.05;;
34924;SDS011;21130;51.728;8.748;2023-03-19T06:19:16;8.35;;;7.47;;
34924;SDS011;21130;51.728;8.748;2023-03-19T06:21:44;9.48;;;7.43;;
34924;SDS011;21130;51.728;8.748;2023-03-19T06:24:10;8.38;;;7.28;;
34924;SDS011;21130;51.728;8.748;2023-03-19T06:26:38;9.90;;;7.40;;
34924;SDS011;21130;51.728;8.748;2023-03-19T06:29:05;8.68;;;7.78;;
34924;SDS011;21130;51.728;8.748;2023-03-19T06:31:31;12.48;;;8.35;;
34924;SDS011;21130;51.728;8.748;2023-03-19T06:33:58;11.10;;;8.35;;
34924;SDS011;21130;51.728;8.748;2023-03-19T06:36:24;10.88;;;8.65;;
34924;SDS011;21130;51.728;8.748;2023-03-19T06:38:51;10.23;;;8.30;;
34924;SDS011;21130;51.728;8.748;2023-03-19T06:41:18;10.65;;;9.00;;
34924;SDS011;21130;51.728;8.748;2023-03-19T06:43:46;12.05;;;9.85;;
34924;SDS011;21130;51.728;8.748;2023-03-19T06:46:14;11.13;;;9.88;;
34924;SDS011;21130;51.728;8.748;2023-03-19T06:48:40;11.60;;;10.40;;
34924;SDS011;21130;51.728;8.748;2023-03-19T06:51:07;11.25;;;9.68;;
34924;SDS011;21130;51.728;8.748;2023-03-19T06:53:33;11.40;;;10.27;;
34924;SDS011;21130;51.728;8.748;2023-03-19T06:56:00;11.10;;;9.20;;
34924;SDS011;21130;51.728;8.748;2023-03-19T06:58:26;12.23;;;10.73;;
34924;SDS011;21130;51.728;8.748;2023-03-19T07:00:54;12.15;;;10.57;;
34924;SDS011;21130;51.728;8.748;2023-03-19T07:03:20;10.75;;;9.68;;
34924;SDS011;21130;51.728;8.748;2023-03-19T07:05:47;10.95;;;9.85;;
34924;SDS011;21130;51.728;8.748;2023-03-19T07:08:15;11.18;;;9.80;;
34924;SDS011;21130;51.728;8.748;2023-03-19T07:10:41;11.73;;;9.27;;
34924;SDS011;21130;51.728;8.748;2023-03-19T07:13:07;11.13;;;8.00;;
34924;SDS011;21130;51.728;8.748;2023-03-19T07:15:34;8.52;;;7.70;;
34924;SDS011;21130;51.728;8.748;2023-03-19T07:18:02;9.13;;;7.15;;
34924;SDS011;21130;51.728;8.748;2023-03-19T07:20:29;8.65;;;6.72;;
34924;SDS011;21130;51.728;8.748;2023-03-19T07:22:56;8.50;;;6.22;;
34924;SDS011;21130;51.728;8.748;2023-03-19T07:25:22;7.03;;;6.28;;
34924;SDS011;21130;51.728;8.748;2023-03-19T07:27:49;7.95;;;6.18;;
34924;SDS011;21130;51.728;8.748;2023-03-19T07:30:15;7.10;;;6.15;;
34924;SDS011;21130;51.728;8.748;2023-03-19T07:32:42;7.22;;;6.53;;
34924;SDS011;21130;51.728;8.748;2023-03-19T07:35:09;7.95;;;6.65;;
34924;SDS011;21130;51.728;8.748;2023-03-19T07:37:38;6.70;;;5.80;;
34924;SDS011;21130;51.728;8.748;2023-03-19T07:40:05;6.75;;;6.05;;
34924;SDS011;21130;51.728;8.748;2023-03-19T07:42:32;8.13;;;5.57;;
34924;SDS011;21130;51.728;8.748;2023-03-19T07:45:00;5.85;;;5.10;;
34924;SDS011;21130;51.728;8.748;2023-03-19T07:47:27;7.85;;;5.43;;
34924;SDS011;21130;51.728;8.748;2023-03-19T07:49:53;6.93;;;5.07;;
34924;SDS011;21130;51.728;8.748;2023-03-19T07:52:21;5.65;;;5.05;;
34924;SDS011;21130;51.728;8.748;2023-03-19T07:54:47;7.50;;;4.80;;
34924;SDS011;21130;51.728;8.748;2023-03-19T07:57:14;6.40;;;4.70;;
34924;SDS011;21130;51.728;8.748;2023-03-19T07:59:40;9.32;;;4.93;;
34924;SDS011;21130;51.728;8.748;2023-03-19T08:02:07;5.57;;;4.80;;
34924;SDS011;21130;51.728;8.748;2023-03-19T08:04:35;6.10;;;4.53;;
34924;SDS011;21130;51.728;8.748;2023-03-19T08:07:01;6.45;;;4.30;;
34924;SDS011;21130;51.728;8.748;2023-03-19T08:09:29;5.85;;;4.50;;
34924;SDS011;21130;51.728;8.748;2023-03-19T08:11:56;6.57;;;4.13;;
34924;SDS011;21130;51.728;8.748;2023-03-19T08:14:22;6.00;;;4.00;;
34924;SDS011;21130;51.728;8.748;2023-03-19T08:16:49;5.75;;;4.05;;
34924;SDS011;21130;51.728;8.748;2023-03-19T08:19:15;4.65;;;3.83;;
34924;SDS011;21130;51.728;8.748;2023-03-19T08:21:42;3.97;;;2.63;;
34924;SDS011;21130;51.728;8.748;2023-03-19T08:24:09;4.63;;;2.55;;
34924;SDS011;21130;51.728;8.748;2023-03-19T08:26:37;5.68;;;2.30;;
34924;SDS011;21130;51.728;8.748;2023-03-19T08:29:03;4.40;;;1.92;;
34924;SDS011;21130;51.728;8.748;2023-03-19T08:31:31;3.13;;;1.95;;
34924;SDS011;21130;51.728;8.748;2023-03-19T08:33:57;3.42;;;1.83;;
34924;SDS011;21130;51.728;8.748;2023-03-19T08:36:27;3.42;;;1.90;;
34924;SDS011;21130;51.728;8.748;2023-03-19T08:38:53;5.70;;;1.80;;
34924;SDS011;21130;51.728;8.748;2023-03-19T08:41:20;2.88;;;1.65;;
34924;SDS011;21130;51.728;8.748;2023-03-19T08:43:49;2.65;;;1.50;;
34924;SDS011;21130;51.728;8.748;2023-03-19T08:46:15;2.78;;;1.70;;
34924;SDS011;21130;51.728;8.748;2023-03-19T08:48:42;3.90;;;1.80;;
34924;SDS011;21130;51.728;8.748;2023-03-19T08:51:09;2.58;;;1.65;;
34924;SDS011;21130;51.728;8.748;2023-03-19T08:53:36;3.53;;;1.80;;
34924;SDS011;21130;51.728;8.748;2023-03-19T08:56:04;3.15;;;1.98;;
34924;SDS011;21130;51.728;8.748;2023-03-19T08:58:31;4.07;;;1.55;;
34924;SDS011;21130;51.728;8.748;2023-03-19T09:01:03;3.28;;;1.80;;
34924;SDS011;21130;51.728;8.748;2023-03-19T09:03:31;1.95;;;1.50;;
34924;SDS011;21130;51.728;8.748;2023-03-19T09:05:58;2.60;;;1.50;;
34924;SDS011;21130;51.728;8.748;2023-03-19T09:08:25;3.53;;;1.65;;
34924;SDS011;21130;51.728;8.748;2023-03-19T09:10:52;3.30;;;1.58;;
34924;SDS011;21130;51.728;8.748;2023-03-19T09:13:18;2.80;;;1.38;;
34924;SDS011;21130;51.728;8.748;2023-03-19T09:15:45;1.38;;;1.25;;
34924;SDS011;21130;51.728;8.748;2023-03-19T09:18:12;1.85;;;1.17;;
34924;SDS011;21130;51.728;8.748;2023-03-19T09:20:39;3.10;;;1.40;;
34924;SDS011;21130;51.728;8.748;2023-03-19T09:23:06;3.00;;;1.88;;
34924;SDS011;21130;51.728;8.748;2023-03-19T09:25:32;2.10;;;1.52;;
34924;SDS011;21130;51.728;8.748;2023-03-19T09:27:58;3.35;;;2.03;;
34924;SDS011;21130;51.728;8.748;2023-03-19T09:30:25;2.97;;;1.30;;
34924;SDS011;21130;51.728;8.748;2023-03-19T09:32:52;2.38;;;1.50;;
34924;SDS011;21130;51.728;8.748;2023-03-19T09:35:20;2.13;;;1.35;;
34924;SDS011;21130;51.728;8.748;2023-03-19T09:37:47;2.67;;;1.30;;
34924;SDS011;21130;51.728;8.748;2023-03-19T09:40:15;2.10;;;1.15;;
34924;SDS011;21130;51.728;8.748;2023-03-19T09:42:51;2.25;;;1.50;;
34924;SDS011;21130;51.728;8.748;2023-03-19T09:45:24;3.67;;;1.05;;
34924;SDS011;21130;51.728;8.748;2023-03-19T09:47:54;1.50;;;0.90;;
34924;SDS011;21130;51.728;8.748;2023-03-19T09:50:29;1.75;;;1.20;;
34924;SDS011;21130;51.728;8.748;2023-03-19T09:53:00;2.70;;;1.30;;
34924;SDS011;21130;51.728;8.748;2023-03-19T09:55:34;1.10;;;1.00;;
34924;SDS011;21130;51.728;8.748;2023-03-19T09:58:09;2.90;;;1.30;;
34924;SDS011;21130;51.728;8.748;2023-03-19T10:00:39;2.95;;;0.98;;
34924;SDS011;21130;51.728;8.748;2023-03-19T10:03:11;1.77;;;1.25;;
34924;SDS011;21130;51.728;8.748;2023-03-19T10:05:51;3.38;;;1.27;;
34924;SDS011;21130;51.728;8.748;2023-03-19T10:08:29;2.80;;;1.50;;
34924;SDS011;21130;51.728;8.748;2023-03-19T10:11:09;1.45;;;1.10;;
34924;SDS011;21130;51.728;8.748;2023-03-19T10:14:00;1.68;;;1.12;;
34924;SDS011;21130;51.728;8.748;2023-03-19T10:16:35;2.47;;;1.50;;
34924;SDS011;21130;51.728;8.748;2023-03-19T10:19:07;1.60;;;1.30;;
34924;SDS011;21130;51.728;8.748;2023-03-19T10:21:40;2.03;;;1.60;;
34924;SDS011;21130;51.728;8.748;2023-03-19T10:24:10;1.75;;;1.25;;
34924;SDS011;21130;51.728;8.748;2023-03-19T10:26:40;3.50;;;2.00;;
34924;SDS011;21130;51.728;8.748;2023-03-19T10:29:10;1.48;;;1.20;;
34924;SDS011;21130;51.728;8.748;2023-03-19T10:31:45;2.97;;;1.35;;
34924;SDS011;21130;51.728;8.748;2023-03-19T10:34:20;3.08;;;1.48;;
34924;SDS011;21130;51.728;8.748;2023-03-19T10:37:00;3.45;;;1.35;;
34924;SDS011;21130;51.728;8.748;2023-03-19T10:39:28;1.83;;;1.50;;
34924;SDS011;21130;51.728;8.748;2023-03-19T10:41:59;1.52;;;1.23;;
34924;SDS011;21130;51.728;8.748;2023-03-19T10:44:34;3.33;;;1.60;;
34924;SDS011;21130;51.728;8.748;2023-03-19T10:47:11;3.08;;;1.60;;
34924;SDS011;21130;51.728;8.748;2023-03-19T10:49:38;2.95;;;1.50;;
34924;SDS011;21130;51.728;8.748;2023-03-19T10:52:12;2.10;;;1.33;;
34924;SDS011;21130;51.728;8.748;2023-03-19T10:54:44;2.20;;;1.65;;
34924;SDS011;21130;51.728;8.748;2023-03-19T10:57:20;2.65;;;1.77;;
34924;SDS011;21130;51.728;8.748;2023-03-19T10:59:48;4.70;;;1.52;;
34924;SDS011;21130;51.728;8.748;2023-03-19T11:02:15;1.50;;;1.30;;
34924;SDS011;21130;51.728;8.748;2023-03-19T11:04:43;2.85;;;1.58;;
34924;SDS011;21130;51.728;8.748;2023-03-19T11:07:12;3.00;;;1.60;;
34924;SDS011;21130;51.728;8.748;2023-03-19T11:09:40;2.20;;;1.50;;
34924;SDS011;21130;51.728;8.748;2023-03-19T11:12:14;3.08;;;1.40;;
34924;SDS011;21130;51.728;8.748;2023-03-19T11:14:45;2.65;;;1.52;;
34924;SDS011;21130;51.728;8.748;2023-03-19T11:17:16;1.67;;;1.33;;
34924;SDS011;21130;51.728;8.748;2023-03-19T11:19:49;1.98;;;1.50;;
34924;SDS011;21130;51.728;8.748;2023-03-19T11:22:21;1.92;;;1.60;;
34924;SDS011;21130;51.728;8.748;2023-03-19T11:24:49;2.83;;;1.60;;
34924;SDS011;21130;51.728;8.748;2023-03-19T11:27:18;1.27;;;1.17;;
34924;SDS011;21130;51.728;8.748;2023-03-19T11:29:51;2.83;;;1.48;;
34924;SDS011;21130;51.728;8.748;2023-03-19T11:32:23;1.52;;;1.25;;
34924;SDS011;21130;51.728;8.748;2023-03-19T11:35:00;5.68;;;1.40;;
34924;SDS011;21130;51.728;8.748;2023-03-19T11:37:32;1.80;;;1.55;;
34924;SDS011;21130;51.728;8.748;2023-03-19T11:40:15;2.33;;;1.65;;
34924;SDS011;21130;51.728;8.748;2023-03-19T11:42:52;1.50;;;1.30;;
34924;SDS011;21130;51.728;8.748;2023-03-19T11:45:28;2.13;;;1.50;;
34924;SDS011;21130;51.728;8.748;2023-03-19T11:48:02;1.88;;;1.40;;
34924;SDS011;21130;51.728;8.748;2023-03-19T11:50:43;3.15;;;1.50;;
34924;SDS011;21130;51.728;8.748;2023-03-19T11:53:20;2.88;;;1.48;;
34924;SDS011;21130;51.728;8.748;2023-03-19T11:55:51;2.88;;;1.65;;
34924;SDS011;21130;51.728;8.748;2023-03-19T12:01:51;1.42;;;1.33;;
34924;SDS011;21130;51.728;8.748;2023-03-19T12:07:28;1.67;;;1.58;;
34924;SDS011;21130;51.728;8.748;2023-03-19T12:10:21;2.78;;;1.50;;
34924;SDS011;21130;51.728;8.748;2023-03-19T12:12:56;2.33;;;1.60;;
34924;SDS011;21130;51.728;8.748;2023-03-19T12:15:34;2.03;;;1.70;;
34924;SDS011;21130;51.728;8.748;2023-03-19T12:18:06;2.38;;;1.42;;
34924;SDS011;21130;51.728;8.748;2023-03-19T12:20:42;2.95;;;1.65;;
34924;SDS011;21130;51.728;8.748;2023-03-19T12:23:21;1.63;;;1.52;;
34924;SDS011;21130;51.728;8.748;2023-03-19T12:25:59;1.90;;;1.70;;
34924;SDS011;21130;51.728;8.748;2023-03-19T12:28:33;2.35;;;1.70;;
34924;SDS011;21130;51.728;8.748;2023-03-19T12:34:21;6.97;;;2.28;;
34924;SDS011;21130;51.728;8.748;2023-03-19T12:36:56;3.72;;;2.85;;
34924;SDS011;21130;51.728;8.748;2023-03-19T12:39:37;2.47;;;2.28;;
34924;SDS011;21130;51.728;8.748;2023-03-19T12:42:11;3.08;;;2.50;;
34924;SDS011;21130;51.728;8.748;2023-03-19T12:44:45;2.90;;;2.70;;
34924;SDS011;21130;51.728;8.748;2023-03-19T12:47:17;3.05;;;2.80;;
34924;SDS011;21130;51.728;8.748;2023-03-19T12:49:47;4.15;;;2.70;;
34924;SDS011;21130;51.728;8.748;2023-03-19T12:52:18;3.05;;;2.20;;
34924;SDS011;21130;51.728;8.748;2023-03-19T12:54:52;2.50;;;2.30;;
34924;SDS011;21130;51.728;8.748;2023-03-19T12:57:26;3.42;;;2.40;;
34924;SDS011;21130;51.728;8.748;2023-03-19T12:59:58;5.00;;;2.55;;
34924;SDS011;21130;51.728;8.748;2023-03-19T13:02:28;2.33;;;2.10;;
34924;SDS011;21130;51.728;8.748;2023-03-19T13:04:59;2.33;;;2.13;;
34924;SDS011;21130;51.728;8.748;2023-03-19T13:07:34;2.13;;;1.92;;
34924;SDS011;21130;51.728;8.748;2023-03-19T13:10:05;2.45;;;2.00;;
34924;SDS011;21130;51.728;8.748;2023-03-19T13:12:37;2.90;;;2.15;;
34924;SDS011;21130;51.728;8.748;2023-03-19T13:15:04;2.45;;;2.20;;
34924;SDS011;21130;51.728;8.748;2023-03-19T13:17:35;3.33;;;2.00;;
34924;SDS011;21130;51.728;8.748;2023-03-19T13:20:14;4.53;;;2.17;;
34924;SDS011;21130;51.728;8.748;2023-03-19T13:22:46;2.20;;;2.00;;
34924;SDS011;21130;51.728;8.748;2023-03-19T13:25:16;2.45;;;2.20;;
34924;SDS011;21130;51.728;8.748;2023-03-19T13:27:52;2.28;;;2.00;;
34924;SDS011;21130;51.728;8.748;2023-03-19T13:30:21;2.30;;;2.10;;
34924;SDS011;21130;51.728;8.748;2023-03-19T13:32:50;2.75;;;2.55;;
34924;SDS011;21130;51.728;8.748;2023-03-19T13:35:33;3.90;;;2.63;;
34924;SDS011;21130;51.728;8.748;2023-03-19T13:38:03;2.83;;;2.50;;
34924;SDS011;21130;51.728;8.748;2023-03-19T13:40:39;2.58;;;2.30;;
34924;SDS011;21130;51.728;8.748;2023-03-19T13:43:20;3.65;;;2.50;;
34924;SDS011;21130;51.728;8.748;2023-03-19T13:46:31;3.00;;;2.30;;
34924;SDS011;21130;51.728;8.748;2023-03-19T13:49:24;2.58;;;2.38;;
34924;SDS011;21130;51.728;8.748;2023-03-19T13:55:28;3.78;;;2.13;;
34924;SDS011;21130;51.728;8.748;2023-03-19T13:57:58;3.42;;;2.38;;
34924;SDS011;21130;51.728;8.748;2023-03-19T14:00:56;3.13;;;2.75;;
34924;SDS011;21130;51.728;8.748;2023-03-19T14:03:24;4.07;;;2.50;;
34924;SDS011;21130;51.728;8.748;2023-03-19T14:05:53;2.63;;;2.42;;
34924;SDS011;21130;51.728;8.748;2023-03-19T14:08:22;2.58;;;2.38;;
34924;SDS011;21130;51.728;8.748;2023-03-19T14:10:51;2.90;;;2.60;;
34924;SDS011;21130;51.728;8.748;2023-03-19T14:13:22;3.33;;;2.60;;
34924;SDS011;21130;51.728;8.748;2023-03-19T14:16:02;4.30;;;3.15;;
34924;SDS011;21130;51.728;8.748;2023-03-19T14:18:32;4.03;;;3.63;;
34924;SDS011;21130;51.728;8.748;2023-03-19T14:21:05;6.28;;;3.97;;
34924;SDS011;21130;51.728;8.748;2023-03-19T14:23:37;4.35;;;3.95;;
34924;SDS011;21130;51.728;8.748;2023-03-19T14:26:05;4.47;;;3.80;;
34924;SDS011;21130;51.728;8.748;2023-03-19T14:28:40;4.50;;;4.10;;
34924;SDS011;21130;51.728;8.748;2023-03-19T14:31:19;5.60;;;4.03;;
34924;SDS011;21130;51.728;8.748;2023-03-19T14:33:51;4.55;;;3.85;;
34924;SDS011;21130;51.728;8.748;2023-03-19T14:36:23;5.13;;;3.90;;
34924;SDS011;21130;51.728;8.748;2023-03-19T14:38:50;5.43;;;3.88;;
34924;SDS011;21130;51.728;8.748;2023-03-19T14:41:21;4.32;;;3.35;;
34924;SDS011;21130;51.728;8.748;2023-03-19T14:43:55;3.72;;;3.25;;
34924;SDS011;21130;51.728;8.748;2023-03-19T14:46:50;4.00;;;2.58;;
34924;SDS011;21130;51.728;8.748;2023-03-19T14:49:43;3.42;;;2.88;;
34924;SDS011;21130;51.728;8.748;2023-03-19T14:52:21;3.50;;;3.17;;
34924;SDS011;21130;51.728;8.748;2023-03-19T14:54:51;3.95;;;2.63;;
34924;SDS011;21130;51.728;8.748;2023-03-19T14:57:20;4.22;;;3.63;;
34924;SDS011;21130;51.728;8.748;2023-03-19T14:59:51;4.85;;;3.90;;
34924;SDS011;21130;51.728;8.748;2023-03-19T15:02:24;4.68;;;4.28;;
34924;SDS011;21130;51.728;8.748;2023-03-19T15:04:58;5.60;;;4.32;;
34924;SDS011;21130;51.728;8.748;2023-03-19T15:07:28;5.65;;;5.10;;